Weather at Westonzoyland Microlight

Public forecast

Using degrees Celsius for public forecast. Weather courtesy of forecast.io.

Closest aviation weather report (METAR) to Westonzoyland Microlight

Closest report is RNAS Yeovilton, 11.9 nm (22.0 km) ESE. Retrieved 2021/09/27 22:20 UTC (3 minutes ago):

EGDY 272220Z 19006KT 9999 FEW035 12/08 Q1018 NOSIG RMK BLU BLU

Closest aviation forecast (TAF) to Westonzoyland Microlight

Forecast is more than 12 hours old.

Closest forecast is RNAS Yeovilton, 11.9 nm (22.0 km) ESE. Retrieved 2020/10/05 06:30 UTC (12 months ago):

TAF TAF EGDY 051025Z 0506/0518 CNL